createdAt,value
2022-11-08T00:00:49.730Z,33.57
2022-11-08T00:01:52.005Z,32.83
2022-11-08T00:02:53.612Z,33.07
2022-11-08T00:03:55.189Z,33.07
2022-11-08T00:04:56.819Z,33.50
2022-11-08T00:06:17.117Z,33.03
2022-11-08T00:07:37.169Z,34.00
2022-11-08T00:08:57.673Z,30.33
2022-11-08T00:10:17.547Z,30.67
2022-11-08T00:11:37.733Z,30.43
2022-11-08T00:12:57.731Z,30.03
2022-11-08T00:13:59.990Z,30.20
2022-11-08T00:15:02.621Z,30.43
2022-11-08T00:16:04.225Z,30.63
2022-11-08T00:17:08.640Z,30.03
2022-11-08T00:18:10.149Z,30.73
2022-11-08T00:19:11.859Z,29.77
2022-11-08T00:20:13.494Z,29.13
2022-11-08T00:21:15.059Z,30.37
2022-11-08T00:22:17.694Z,29.73
2022-11-08T00:23:19.217Z,29.43
2022-11-08T00:24:20.763Z,31.27
2022-11-08T00:25:22.351Z,30.87
2022-11-08T00:26:23.881Z,29.67
2022-11-08T00:27:26.456Z,29.37
2022-11-08T00:28:27.967Z,30.80
2022-11-08T00:29:29.532Z,30.07
2022-11-08T00:30:31.078Z,29.40
2022-11-08T00:31:32.588Z,29.13
2022-11-08T00:32:34.191Z,28.60
2022-11-08T00:33:35.731Z,30.73
2022-11-08T00:34:37.355Z,30.97
2022-11-08T00:35:38.864Z,29.70
2022-11-08T00:36:40.386Z,29.87
2022-11-08T00:37:41.946Z,30.23
2022-11-08T00:38:44.378Z,28.30
2022-11-08T00:39:46.223Z,28.50
2022-11-08T00:40:47.792Z,30.73
2022-11-08T00:41:49.346Z,28.70
2022-11-08T00:42:50.925Z,31.13
2022-11-08T00:43:52.556Z,30.57
2022-11-08T00:44:54.115Z,30.53
2022-11-08T00:45:55.632Z,30.50
2022-11-08T00:46:57.147Z,30.57
2022-11-08T00:47:58.647Z,30.07
2022-11-08T00:49:00.204Z,31.33
2022-11-08T00:50:01.870Z,30.03
2022-11-08T00:51:06.218Z,31.03
2022-11-08T00:52:07.807Z,29.73
2022-11-08T00:53:09.755Z,31.60
2022-11-08T00:54:15.679Z,29.80
2022-11-08T00:55:17.191Z,29.70
2022-11-08T00:56:18.698Z,31.17
2022-11-08T00:57:22.294Z,30.30
2022-11-08T00:58:32.842Z,29.50
2022-11-08T00:59:34.384Z,30.00
2022-11-08T01:00:35.987Z,31.00
2022-11-08T01:01:37.689Z,30.50
2022-11-08T01:02:39.327Z,30.77
2022-11-08T01:03:40.963Z,30.57
2022-11-08T01:04:42.516Z,30.50
2022-11-08T01:05:44.511Z,31.30
2022-11-08T01:06:46.715Z,31.07
2022-11-08T01:07:48.271Z,30.87
2022-11-08T01:08:50.207Z,30.27
2022-11-08T01:09:51.731Z,31.20
2022-11-08T01:10:53.345Z,30.40
2022-11-08T01:11:54.870Z,31.00
2022-11-08T01:12:56.630Z,29.70
2022-11-08T01:14:00.148Z,31.20
2022-11-08T01:15:01.761Z,31.60
2022-11-08T01:16:07.976Z,31.47
2022-11-08T01:17:09.527Z,31.63
2022-11-08T01:18:13.814Z,32.53
2022-11-08T01:19:15.369Z,33.50
2022-11-08T01:20:17.059Z,33.43
2022-11-08T01:21:18.982Z,32.80
2022-11-08T01:22:20.539Z,34.53
2022-11-08T01:23:22.057Z,33.57
2022-11-08T01:24:23.587Z,32.73
2022-11-08T01:25:25.506Z,32.10
2022-11-08T01:26:29.237Z,33.33
2022-11-08T01:27:30.935Z,34.27
2022-11-08T01:28:33.736Z,34.37
2022-11-08T01:29:35.262Z,33.27
2022-11-08T01:30:38.522Z,34.20
2022-11-08T01:31:40.026Z,33.70
2022-11-08T01:32:41.562Z,33.13
2022-11-08T01:33:48.461Z,32.50
2022-11-08T01:34:52.564Z,33.37
2022-11-08T01:35:54.071Z,32.53
2022-11-08T01:36:55.603Z,33.30
2022-11-08T01:37:57.124Z,33.30
2022-11-08T01:38:58.720Z,33.03
2022-11-08T01:40:00.324Z,33.17
2022-11-08T01:41:02.026Z,33.23
2022-11-08T01:42:03.728Z,32.70
2022-11-08T01:43:31.679Z,31.93
2022-11-08T01:44:33.198Z,31.03
2022-11-08T01:46:09.788Z,30.40
2022-11-08T01:47:11.280Z,28.83
2022-11-08T01:48:12.806Z,30.80
2022-11-08T01:49:35.096Z,31.77
2022-11-08T01:50:36.739Z,31.43
2022-11-08T01:52:00.167Z,32.20
2022-11-08T01:53:01.716Z,31.60
2022-11-08T01:54:06.799Z,30.07
2022-11-08T01:55:20.324Z,31.37
2022-11-08T01:56:21.928Z,31.20
2022-11-08T01:57:43.159Z,30.97
2022-11-08T01:58:49.828Z,30.83
2022-11-08T01:59:55.984Z,30.57
2022-11-08T02:00:59.811Z,31.03
2022-11-08T02:02:01.817Z,31.50
2022-11-08T02:03:05.270Z,31.97
2022-11-08T02:04:07.011Z,31.17
2022-11-08T02:05:25.001Z,30.97
2022-11-08T02:06:29.554Z,31.57
2022-11-08T02:07:34.333Z,31.33
2022-11-08T02:08:41.823Z,30.73
2022-11-08T02:09:46.626Z,31.37
2022-11-08T02:10:50.959Z,29.83
2022-11-08T02:11:53.719Z,31.30
2022-11-08T02:12:56.017Z,33.10
2022-11-08T02:13:58.295Z,32.13
2022-11-08T02:15:00.084Z,32.33
2022-11-08T02:16:01.990Z,32.63
2022-11-08T02:17:04.284Z,31.33
2022-11-08T02:18:06.306Z,31.67
2022-11-08T02:19:12.058Z,31.90
2022-11-08T02:20:13.722Z,31.60
2022-11-08T02:21:28.478Z,31.00
2022-11-08T02:22:38.971Z,30.57
2022-11-08T02:23:51.751Z,30.30
2022-11-08T02:24:54.318Z,31.03
2022-11-08T02:25:56.174Z,31.33
2022-11-08T02:26:57.805Z,32.70
2022-11-08T02:27:59.327Z,31.73
2022-11-08T02:29:23.646Z,31.10
2022-11-08T02:30:25.631Z,31.40
2022-11-08T02:31:27.143Z,30.73
2022-11-08T02:32:38.095Z,30.97
2022-11-08T02:33:40.540Z,32.20
2022-11-08T02:34:47.062Z,32.20
2022-11-08T02:35:52.178Z,32.53
2022-11-08T02:36:54.238Z,32.63
2022-11-08T02:37:55.847Z,33.00
2022-11-08T02:38:58.100Z,33.13
2022-11-08T02:39:59.773Z,30.37
2022-11-08T02:41:01.331Z,29.33
2022-11-08T02:42:03.369Z,31.53
2022-11-08T02:43:04.878Z,29.50
2022-11-08T02:44:06.463Z,32.37
2022-11-08T02:45:08.484Z,33.20
2022-11-08T02:46:10.177Z,32.03
2022-11-08T02:47:11.989Z,31.97
2022-11-08T02:48:14.424Z,30.73
2022-11-08T02:49:16.137Z,31.87
2022-11-08T02:50:17.774Z,31.27
2022-11-08T02:51:19.402Z,31.70
2022-11-08T02:52:21.034Z,30.97
2022-11-08T02:53:22.755Z,32.13
2022-11-08T02:54:24.281Z,31.20
2022-11-08T02:55:25.956Z,29.93
2022-11-08T02:56:27.580Z,30.93
2022-11-08T02:57:29.107Z,30.27
2022-11-08T02:58:30.682Z,30.50
2022-11-08T02:59:32.228Z,28.80
2022-11-08T03:00:34.686Z,28.03
2022-11-08T03:01:36.310Z,25.03
2022-11-08T03:02:37.975Z,25.20
2022-11-08T03:03:39.593Z,26.37
2022-11-08T03:04:41.267Z,25.83
2022-11-08T03:05:43.458Z,25.63
2022-11-08T03:06:45.046Z,28.93
2022-11-08T03:07:46.775Z,30.40
2022-11-08T03:08:48.294Z,31.13
2022-11-08T03:09:49.801Z,30.60
2022-11-08T03:10:51.454Z,32.27
2022-11-08T03:11:53.452Z,31.30
2022-11-08T03:12:56.705Z,30.83
2022-11-08T03:13:58.359Z,29.97
2022-11-08T03:14:59.871Z,29.57
2022-11-08T03:16:06.070Z,30.50
2022-11-08T03:17:07.650Z,29.57
2022-11-08T03:18:09.185Z,29.53
2022-11-08T03:19:12.133Z,28.77
2022-11-08T03:20:13.643Z,29.47
2022-11-08T03:21:15.193Z,30.30
2022-11-08T03:22:16.809Z,31.57
2022-11-08T03:23:18.366Z,31.37
2022-11-08T03:24:19.882Z,30.30
2022-11-08T03:25:21.509Z,30.40
2022-11-08T03:26:23.038Z,29.47
2022-11-08T03:27:24.975Z,29.33
2022-11-08T03:28:26.683Z,31.10
2022-11-08T03:29:28.457Z,32.70
2022-11-08T03:30:30.108Z,33.10
2022-11-08T03:31:31.611Z,32.23
2022-11-08T03:32:33.554Z,30.50
2022-11-08T03:33:35.392Z,31.53
2022-11-08T03:34:36.958Z,29.73
2022-11-08T03:35:38.562Z,29.67
2022-11-08T03:36:40.063Z,29.13
2022-11-08T03:37:41.801Z,29.47
2022-11-08T03:38:43.368Z,29.27
2022-11-08T03:39:44.883Z,29.67
2022-11-08T03:40:47.082Z,29.87
2022-11-08T03:41:48.615Z,29.70
2022-11-08T03:42:50.208Z,28.40
2022-11-08T03:43:51.806Z,30.80
2022-11-08T03:44:53.356Z,30.50
2022-11-08T03:45:54.887Z,31.53
2022-11-08T03:46:56.661Z,30.47
2022-11-08T03:47:58.299Z,30.27
2022-11-08T03:48:59.819Z,32.07
2022-11-08T03:50:01.334Z,32.40
2022-11-08T03:51:02.871Z,32.27
2022-11-08T03:52:04.584Z,31.50
2022-11-08T03:53:06.137Z,31.67
2022-11-08T03:54:07.690Z,30.80
2022-11-08T03:55:10.715Z,31.30
2022-11-08T03:56:12.254Z,29.93
2022-11-08T03:57:13.781Z,29.93
2022-11-08T03:58:15.540Z,30.10
2022-11-08T03:59:17.431Z,29.73
2022-11-08T04:00:22.460Z,28.87
2022-11-08T04:01:24.184Z,28.97
2022-11-08T04:02:25.912Z,28.97
2022-11-08T04:03:27.495Z,30.17
2022-11-08T04:04:29.022Z,31.60
2022-11-08T04:05:32.500Z,29.63
2022-11-08T04:06:34.451Z,32.20
2022-11-08T04:07:36.499Z,31.70
2022-11-08T04:08:38.189Z,31.70
2022-11-08T04:09:43.998Z,32.53
2022-11-08T04:10:45.551Z,32.63
2022-11-08T04:12:05.446Z,31.40
2022-11-08T04:13:27.067Z,31.60
2022-11-08T04:14:47.515Z,33.10
2022-11-08T04:15:54.913Z,32.33
2022-11-08T04:16:56.688Z,33.27
2022-11-08T04:18:17.704Z,31.10
2022-11-08T04:19:38.286Z,33.70
2022-11-08T04:21:03.672Z,32.20
2022-11-08T04:22:06.463Z,32.57
2022-11-08T04:23:08.003Z,31.90
2022-11-08T04:24:09.558Z,32.63
2022-11-08T04:25:11.086Z,32.47
2022-11-08T04:26:12.786Z,32.83
2022-11-08T04:27:14.315Z,33.40
2022-11-08T04:28:17.410Z,31.47
2022-11-08T04:29:19.236Z,31.47
2022-11-08T04:30:20.916Z,31.90
2022-11-08T04:31:22.565Z,32.33
2022-11-08T04:32:24.112Z,32.23
2022-11-08T04:33:25.774Z,31.63
2022-11-08T04:34:27.311Z,32.20
2022-11-08T04:35:30.357Z,31.67
2022-11-08T04:36:33.428Z,32.37
2022-11-08T04:37:34.987Z,30.13
2022-11-08T04:38:36.949Z,31.50
2022-11-08T04:39:38.790Z,29.27
2022-11-08T04:40:40.329Z,30.13
2022-11-08T04:41:41.871Z,31.13
2022-11-08T04:42:46.240Z,37.07
2022-11-08T04:43:48.886Z,37.53
2022-11-08T04:44:50.391Z,34.47
2022-11-08T04:45:51.926Z,35.23
2022-11-08T04:46:53.622Z,34.23
2022-11-08T04:47:55.192Z,30.93
2022-11-08T04:48:59.192Z,30.43
2022-11-08T04:50:00.734Z,29.27
2022-11-08T04:51:12.132Z,28.83
2022-11-08T04:52:15.420Z,27.90
2022-11-08T04:53:16.936Z,27.87
2022-11-08T04:54:18.460Z,27.50
2022-11-08T04:55:21.394Z,28.33
2022-11-08T04:56:24.241Z,27.87
2022-11-08T04:57:25.795Z,28.33
2022-11-08T04:58:28.660Z,26.83
2022-11-08T04:59:30.268Z,27.57
2022-11-08T05:00:31.768Z,27.90
2022-11-08T05:01:33.326Z,27.27
2022-11-08T05:02:35.052Z,26.57
2022-11-08T05:03:36.988Z,26.83
2022-11-08T05:04:38.532Z,26.33
2022-11-08T05:05:40.058Z,27.30
2022-11-08T05:06:41.630Z,26.33
2022-11-08T05:07:46.054Z,24.20
2022-11-08T05:08:47.786Z,23.90
2022-11-08T05:09:49.317Z,23.87
2022-11-08T05:10:50.880Z,22.10
2022-11-08T05:11:52.550Z,24.00
2022-11-08T05:12:57.050Z,22.83
2022-11-08T05:13:58.994Z,23.53
2022-11-08T05:15:00.547Z,22.47
2022-11-08T05:16:07.163Z,23.90
2022-11-08T05:17:08.724Z,25.27
2022-11-08T05:18:10.453Z,24.77
2022-11-08T05:19:13.328Z,24.37
2022-11-08T05:20:33.574Z,23.87
2022-11-08T05:21:53.319Z,23.87
2022-11-08T05:23:19.241Z,24.03
2022-11-08T05:24:20.775Z,22.63
2022-11-08T05:25:22.292Z,23.70
2022-11-08T05:26:24.136Z,23.10
2022-11-08T05:27:25.675Z,24.47
2022-11-08T05:28:32.425Z,22.87
2022-11-08T05:29:36.467Z,24.07
2022-11-08T05:30:42.022Z,22.90
2022-11-08T05:31:43.574Z,22.83
2022-11-08T05:32:45.118Z,23.93
2022-11-08T05:33:47.001Z,23.53
2022-11-08T05:34:48.598Z,24.03
2022-11-08T05:35:50.500Z,24.67
2022-11-08T05:36:52.027Z,24.03
2022-11-08T05:37:53.573Z,23.37
2022-11-08T05:38:55.838Z,25.10
2022-11-08T05:39:57.339Z,23.50
2022-11-08T05:41:07.331Z,25.00
2022-11-08T05:42:09.217Z,25.70
2022-11-08T05:43:10.846Z,25.90
2022-11-08T05:44:12.383Z,25.53
2022-11-08T05:45:13.924Z,26.23
2022-11-08T05:46:16.757Z,26.60
2022-11-08T05:47:18.287Z,27.17
2022-11-08T05:48:20.046Z,27.13
2022-11-08T05:49:21.824Z,28.20
2022-11-08T05:50:25.058Z,25.60
2022-11-08T05:51:26.762Z,24.33
2022-11-08T05:52:28.386Z,23.77
2022-11-08T05:53:30.280Z,24.63
2022-11-08T05:54:32.471Z,24.63
2022-11-08T05:55:34.036Z,25.43
2022-11-08T05:56:35.612Z,25.37
2022-11-08T05:57:37.158Z,25.97
2022-11-08T05:58:38.694Z,28.37
2022-11-08T05:59:40.291Z,28.97
2022-11-08T06:00:41.971Z,26.57
2022-11-08T06:01:43.623Z,27.43
2022-11-08T06:02:45.211Z,27.67
2022-11-08T06:03:47.820Z,29.27
2022-11-08T06:04:50.084Z,29.27
2022-11-08T06:05:51.641Z,29.10
2022-11-08T06:06:53.531Z,28.97
2022-11-08T06:07:55.305Z,29.00
2022-11-08T06:08:56.925Z,28.77
2022-11-08T06:09:58.443Z,28.60
2022-11-08T06:11:08.163Z,28.03
2022-11-08T06:12:09.730Z,28.20
2022-11-08T06:13:11.367Z,29.20
2022-11-08T06:14:13.456Z,28.17
2022-11-08T06:15:15.146Z,29.80
2022-11-08T06:16:18.178Z,29.77
2022-11-08T06:17:19.962Z,30.90
2022-11-08T06:18:21.654Z,30.90
2022-11-08T06:19:23.406Z,30.57
2022-11-08T06:20:25.017Z,29.43
2022-11-08T06:21:27.363Z,30.63
2022-11-08T06:22:32.136Z,28.60
2022-11-08T06:23:34.347Z,29.50
2022-11-08T06:24:36.307Z,29.67
2022-11-08T06:25:37.945Z,30.17
2022-11-08T06:26:39.585Z,28.73
2022-11-08T06:27:41.134Z,29.37
2022-11-08T06:28:42.707Z,28.17
2022-11-08T06:29:44.327Z,28.13
2022-11-08T06:30:46.417Z,28.37
2022-11-08T06:31:47.935Z,28.47
2022-11-08T06:32:49.448Z,28.47
2022-11-08T06:33:51.008Z,27.93
2022-11-08T06:34:52.959Z,28.13
2022-11-08T06:35:54.622Z,28.97
2022-11-08T06:36:58.715Z,28.43
2022-11-08T06:38:04.619Z,29.33
2022-11-08T06:39:09.761Z,28.10
2022-11-08T06:40:11.636Z,29.23
2022-11-08T06:41:18.827Z,28.80
2022-11-08T06:42:20.445Z,28.70
2022-11-08T06:43:22.450Z,29.03
2022-11-08T06:44:24.359Z,31.57
2022-11-08T06:45:26.695Z,29.80
2022-11-08T06:46:28.334Z,29.13
2022-11-08T06:47:29.857Z,29.63
2022-11-08T06:48:35.941Z,29.73
2022-11-08T06:49:37.819Z,30.03
2022-11-08T06:50:39.569Z,29.87
2022-11-08T06:51:41.129Z,28.43
2022-11-08T06:52:42.648Z,28.20
2022-11-08T06:53:44.697Z,27.97
2022-11-08T06:54:46.268Z,27.37
2022-11-08T06:55:47.776Z,28.17
2022-11-08T06:56:49.631Z,27.37
2022-11-08T06:57:51.561Z,29.73
2022-11-08T06:58:53.167Z,30.10
2022-11-08T06:59:54.711Z,33.30
2022-11-08T07:00:56.409Z,29.50
2022-11-08T07:01:58.129Z,29.30
2022-11-08T07:03:02.421Z,28.53
2022-11-08T07:04:04.212Z,28.63
2022-11-08T07:05:05.963Z,28.03
2022-11-08T07:06:07.957Z,27.63
2022-11-08T07:07:09.457Z,26.93
2022-11-08T07:08:11.367Z,27.27
2022-11-08T07:09:13.056Z,27.67
2022-11-08T07:10:14.585Z,28.03
2022-11-08T07:11:16.649Z,29.50
2022-11-08T07:12:18.450Z,27.93
2022-11-08T07:13:20.594Z,29.17
2022-11-08T07:14:22.518Z,28.30
2022-11-08T07:15:24.049Z,27.47
2022-11-08T07:16:25.727Z,28.30
2022-11-08T07:17:27.236Z,30.37
2022-11-08T07:18:29.383Z,28.53
2022-11-08T07:19:30.971Z,28.23
2022-11-08T07:20:33.323Z,28.10
2022-11-08T07:21:34.853Z,29.10
2022-11-08T07:22:36.516Z,28.63
2022-11-08T07:23:38.023Z,28.63
2022-11-08T07:24:39.523Z,27.80
2022-11-08T07:25:41.649Z,28.27
2022-11-08T07:26:43.213Z,28.10
2022-11-08T07:27:44.777Z,28.83
2022-11-08T07:28:46.313Z,27.67
2022-11-08T07:29:47.905Z,26.40
2022-11-08T07:30:49.741Z,26.90
2022-11-08T07:31:51.245Z,27.90
2022-11-08T07:32:52.896Z,27.70
2022-11-08T07:33:54.476Z,26.87
2022-11-08T07:34:55.989Z,27.60
2022-11-08T07:35:57.492Z,27.77
2022-11-08T07:36:59.007Z,26.00
2022-11-08T07:38:00.849Z,26.00
2022-11-08T07:39:06.418Z,26.83
2022-11-08T07:40:09.078Z,26.67
2022-11-08T07:41:12.667Z,26.23
2022-11-08T07:42:14.398Z,26.33
2022-11-08T07:43:16.668Z,24.70
2022-11-08T07:44:18.194Z,25.43
2022-11-08T07:45:19.875Z,26.37
2022-11-08T07:46:21.395Z,24.13
2022-11-08T07:47:22.937Z,25.90
2022-11-08T07:48:25.842Z,24.37
2022-11-08T07:49:27.351Z,24.13
2022-11-08T07:50:29.450Z,24.63
2022-11-08T07:51:30.967Z,25.00
2022-11-08T07:52:32.601Z,26.17
2022-11-08T07:53:34.128Z,25.43
2022-11-08T07:54:35.641Z,26.23
2022-11-08T07:55:39.037Z,25.97
2022-11-08T07:56:40.627Z,25.10
2022-11-08T07:57:42.183Z,24.73
2022-11-08T07:58:43.758Z,25.73
2022-11-08T07:59:45.459Z,25.40
2022-11-08T08:00:49.843Z,24.03
2022-11-08T08:01:51.421Z,25.27
2022-11-08T08:03:01.089Z,26.83
2022-11-08T08:04:02.777Z,24.93
2022-11-08T08:05:04.697Z,25.13
2022-11-08T08:06:06.375Z,25.47
2022-11-08T08:07:08.107Z,25.93
2022-11-08T08:08:11.624Z,25.40
2022-11-08T08:09:13.309Z,26.93
2022-11-08T08:10:14.903Z,26.53
2022-11-08T08:11:16.613Z,27.87
2022-11-08T08:12:18.159Z,26.57
2022-11-08T08:13:20.025Z,27.33
2022-11-08T08:14:21.999Z,26.93
2022-11-08T08:15:24.396Z,25.00
2022-11-08T08:16:25.966Z,24.83
2022-11-08T08:17:27.493Z,25.13
2022-11-08T08:18:30.206Z,26.70
2022-11-08T08:19:31.799Z,25.73
2022-11-08T08:20:34.964Z,24.67
2022-11-08T08:21:36.745Z,24.57
2022-11-08T08:22:46.020Z,27.07
2022-11-08T08:23:47.667Z,25.33
2022-11-08T08:24:49.243Z,25.17
2022-11-08T08:25:50.750Z,23.43
2022-11-08T08:26:52.764Z,25.30
2022-11-08T08:27:56.714Z,24.80
2022-11-08T08:28:58.367Z,26.00
2022-11-08T08:29:59.901Z,29.53
2022-11-08T08:31:01.612Z,26.00
2022-11-08T08:32:03.221Z,26.40
2022-11-08T08:33:27.331Z,25.43
2022-11-08T08:34:29.779Z,26.03
2022-11-08T08:35:31.332Z,26.93
2022-11-08T08:36:32.882Z,26.90
2022-11-08T08:37:34.427Z,26.80
2022-11-08T08:38:41.409Z,27.50
2022-11-08T08:39:46.592Z,28.33
2022-11-08T08:40:48.150Z,27.20
2022-11-08T08:41:49.653Z,28.70
2022-11-08T08:42:51.186Z,26.63
2022-11-08T08:43:52.707Z,28.43
2022-11-08T08:44:54.543Z,28.33
2022-11-08T08:46:05.038Z,28.40
2022-11-08T08:47:06.555Z,27.67
2022-11-08T08:48:08.115Z,27.33
2022-11-08T08:49:09.706Z,26.57
2022-11-08T08:50:11.286Z,27.70
2022-11-08T08:51:12.980Z,27.83
2022-11-08T08:52:14.685Z,26.97
2022-11-08T08:53:16.867Z,25.90
2022-11-08T08:54:18.744Z,28.83
2022-11-08T08:55:20.967Z,28.13
2022-11-08T08:56:22.522Z,26.50
2022-11-08T08:57:24.060Z,27.47
2022-11-08T08:58:25.571Z,27.00
2022-11-08T09:02:14.430Z,26.97
2022-11-08T09:03:16.448Z,26.33
2022-11-08T09:04:18.268Z,27.83
2022-11-08T09:05:19.869Z,26.70
2022-11-08T09:06:21.446Z,26.57
2022-11-08T09:07:23.097Z,26.40
2022-11-08T09:08:24.918Z,26.57
2022-11-08T09:09:26.441Z,26.35
2022-11-08T09:10:28.532Z,26.30
2022-11-08T09:11:30.186Z,24.92
2022-11-08T09:12:32.462Z,25.25
2022-11-08T09:13:34.097Z,24.95
2022-11-08T09:14:35.636Z,25.45
2022-11-08T09:15:39.357Z,26.52
2022-11-08T09:16:41.073Z,25.80
2022-11-08T09:17:43.026Z,25.30
2022-11-08T09:18:44.648Z,25.08
2022-11-08T09:19:46.474Z,25.90
2022-11-08T09:20:48.222Z,24.98
2022-11-08T09:21:49.821Z,25.27
2022-11-08T09:22:51.551Z,25.43
2022-11-08T09:23:53.187Z,26.13
2022-11-08T09:24:54.811Z,25.53
2022-11-08T09:26:06.353Z,24.67
2022-11-08T09:27:08.000Z,26.07
2022-11-08T09:28:10.193Z,25.83
2022-11-08T09:29:11.789Z,26.77
2022-11-08T09:30:13.479Z,26.67
2022-11-08T09:31:15.424Z,25.00
2022-11-08T09:32:24.713Z,26.97
2022-11-08T09:33:35.521Z,27.13
2022-11-08T09:34:37.116Z,26.90
2022-11-08T09:35:38.654Z,27.30
2022-11-08T09:36:40.220Z,27.03
2022-11-08T09:37:45.573Z,26.53
2022-11-08T09:38:50.291Z,28.30
2022-11-08T09:39:52.060Z,26.37
2022-11-08T09:41:00.260Z,25.70
2022-11-08T09:42:26.635Z,25.00
2022-11-08T09:43:53.439Z,25.70
2022-11-08T09:45:05.252Z,26.10
2022-11-08T09:46:11.874Z,25.07
2022-11-08T09:47:24.774Z,24.73
2022-11-08T09:48:28.578Z,24.43
2022-11-08T09:49:36.291Z,24.60
2022-11-08T09:50:47.058Z,25.10
2022-11-08T09:51:50.083Z,24.87
2022-11-08T09:53:25.832Z,25.80
2022-11-08T09:54:41.805Z,25.03
2022-11-08T09:56:01.678Z,24.93
2022-11-08T09:57:05.422Z,26.10
2022-11-08T09:58:21.241Z,26.47
2022-11-08T09:59:38.062Z,26.40
2022-11-08T10:00:40.827Z,26.07
2022-11-08T10:01:42.802Z,25.30
2022-11-08T10:02:44.721Z,26.60
2022-11-08T10:03:54.130Z,25.60
2022-11-08T10:05:00.728Z,24.30
2022-11-08T10:06:08.628Z,24.60
2022-11-08T10:07:41.525Z,26.27
2022-11-08T10:09:21.696Z,26.47
2022-11-08T10:10:34.887Z,25.23
2022-11-08T10:11:46.623Z,23.70
2022-11-08T10:13:18.658Z,25.23
2022-11-08T10:15:04.759Z,24.80
2022-11-08T10:16:43.878Z,25.80
2022-11-08T10:18:03.591Z,23.20
2022-11-08T10:19:35.084Z,23.55
2022-11-08T10:20:57.387Z,23.70
2022-11-08T10:22:27.991Z,23.03
2022-11-08T10:23:40.879Z,21.95
2022-11-08T10:25:00.939Z,23.00
2022-11-08T10:26:13.364Z,22.17
2022-11-08T10:27:22.355Z,23.17
2022-11-08T10:28:39.533Z,21.67
2022-11-08T10:29:44.870Z,23.58
2022-11-08T10:30:51.027Z,23.23
2022-11-08T10:32:01.609Z,22.67
2022-11-08T10:33:19.949Z,23.97
2022-11-08T10:34:25.819Z,22.08
2022-11-08T10:35:49.777Z,23.13
2022-11-08T10:36:58.159Z,24.63
2022-11-08T10:38:00.974Z,23.73
2022-11-08T10:39:15.782Z,24.13
2022-11-08T10:40:17.327Z,22.60
2022-11-08T10:41:23.555Z,22.52
2022-11-08T10:42:59.416Z,22.10
2022-11-08T10:44:16.754Z,23.08
2022-11-08T10:45:18.423Z,22.48
2022-11-08T10:46:38.445Z,20.17
2022-11-08T10:47:41.031Z,19.45
2022-11-08T10:48:42.593Z,20.83
2022-11-08T10:49:44.186Z,20.45
2022-11-08T10:50:49.532Z,19.10
2022-11-08T10:51:55.671Z,19.92
2022-11-08T10:53:03.614Z,19.73
2022-11-08T10:55:38.532Z,18.55
2022-11-08T10:57:00.459Z,18.70
2022-11-08T10:58:02.098Z,20.43
2022-11-08T10:59:03.906Z,18.77
2022-11-08T11:00:20.701Z,18.73
2022-11-08T11:01:24.637Z,18.30
2022-11-08T11:02:30.061Z,18.33
2022-11-08T11:03:31.924Z,18.73
2022-11-08T11:04:34.905Z,19.40
2022-11-08T11:05:55.094Z,18.70
2022-11-08T11:07:24.229Z,18.67
2022-11-08T11:08:26.425Z,18.70
2022-11-08T11:09:28.436Z,18.40
2022-11-08T11:10:35.436Z,19.13
2022-11-08T11:11:38.977Z,20.67
2022-11-08T11:12:40.531Z,20.83
2022-11-08T11:13:42.079Z,19.55
2022-11-08T11:14:43.605Z,19.80
2022-11-08T11:16:00.212Z,19.85
2022-11-08T11:17:07.981Z,17.88
2022-11-08T11:18:32.254Z,19.42
2022-11-08T11:19:34.689Z,19.73
2022-11-08T11:20:36.281Z,19.55
2022-11-08T11:21:40.023Z,20.65
2022-11-08T11:22:46.148Z,20.20
2022-11-08T11:23:52.068Z,21.23
2022-11-08T11:24:54.829Z,18.73
2022-11-08T11:25:56.414Z,18.02
2022-11-08T11:26:57.884Z,18.27
2022-11-08T11:28:00.956Z,17.80
2022-11-08T11:29:26.402Z,17.98
2022-11-08T11:30:30.454Z,18.88
2022-11-08T11:31:37.235Z,18.13
2022-11-08T11:32:39.999Z,18.58
2022-11-08T11:33:48.857Z,17.88
2022-11-08T11:34:55.067Z,19.35
2022-11-08T11:36:10.692Z,18.00
2022-11-08T11:37:20.823Z,18.98
2022-11-08T11:38:56.789Z,18.08
2022-11-08T11:40:21.333Z,18.70
2022-11-08T11:41:30.128Z,18.42
2022-11-08T11:42:46.562Z,18.83
2022-11-08T11:43:54.671Z,18.37
2022-11-08T11:45:08.522Z,18.13
2022-11-08T11:46:23.786Z,17.80
2022-11-08T11:47:48.731Z,17.40
2022-11-08T11:49:01.677Z,18.08
2022-11-08T11:50:17.097Z,17.70
2022-11-08T11:51:18.929Z,17.55
2022-11-08T11:52:20.623Z,17.05
2022-11-08T11:53:28.074Z,18.45
2022-11-08T11:54:33.990Z,17.58
2022-11-08T11:55:57.143Z,17.77
2022-11-08T11:57:08.436Z,18.20
2022-11-08T11:58:21.901Z,18.90
2022-11-08T12:00:00.794Z,16.75
2022-11-08T12:01:18.075Z,17.80
2022-11-08T12:02:29.138Z,16.67
2022-11-08T12:03:30.771Z,17.17
2022-11-08T12:04:57.025Z,16.38
2022-11-08T12:06:14.220Z,17.27
2022-11-08T12:07:25.266Z,16.50
2022-11-08T12:08:52.720Z,16.17
2022-11-08T12:10:12.858Z,16.58
2022-11-08T12:11:39.086Z,17.38
2022-11-08T12:13:17.771Z,17.33
2022-11-08T12:14:37.311Z,17.45
2022-11-08T12:15:49.700Z,16.53
2022-11-08T12:17:05.315Z,16.30
2022-11-08T12:18:42.132Z,16.50
2022-11-08T12:19:46.881Z,16.50
2022-11-08T12:21:09.670Z,16.45
2022-11-08T12:22:17.060Z,16.92
2022-11-08T12:23:47.803Z,16.88
2022-11-08T12:25:24.672Z,17.58
2022-11-08T12:26:44.919Z,16.75
2022-11-08T12:27:46.399Z,16.77
2022-11-08T12:29:25.018Z,16.45
2022-11-08T12:30:41.141Z,16.17
2022-11-08T12:31:52.396Z,16.23
2022-11-08T12:33:31.559Z,16.17
2022-11-08T12:34:57.875Z,15.73
2022-11-08T12:36:15.901Z,15.90
2022-11-08T12:37:20.345Z,16.48
2022-11-08T12:38:51.573Z,16.60
2022-11-08T12:39:58.965Z,15.60
2022-11-08T12:41:07.691Z,16.95
2022-11-08T12:42:44.506Z,17.48
2022-11-08T12:43:48.785Z,17.15
2022-11-08T12:45:19.400Z,16.08
2022-11-08T12:46:21.260Z,16.50
2022-11-08T12:47:46.543Z,15.77
2022-11-08T12:48:53.873Z,16.00
2022-11-08T12:50:20.901Z,16.13
2022-11-08T12:51:53.349Z,17.08
2022-11-08T12:53:06.938Z,16.73
2022-11-08T12:54:42.085Z,16.60
2022-11-08T12:55:47.271Z,17.52
2022-11-08T12:56:51.194Z,15.85
2022-11-08T12:57:54.725Z,15.70
2022-11-08T12:58:56.645Z,15.57
2022-11-08T13:00:05.789Z,15.60
2022-11-08T13:01:13.809Z,15.93
2022-11-08T13:02:21.083Z,14.93
2022-11-08T13:03:42.910Z,15.00
2022-11-08T13:04:50.412Z,15.88
2022-11-08T13:06:42.425Z,15.63
2022-11-08T13:07:52.260Z,15.77
2022-11-08T13:09:15.137Z,15.95
2022-11-08T13:10:47.607Z,15.80
2022-11-08T13:12:13.518Z,15.73
2022-11-08T13:13:32.876Z,16.98
2022-11-08T13:14:40.050Z,16.15
2022-11-08T13:16:18.283Z,16.27
2022-11-08T13:17:27.294Z,15.52
2022-11-08T13:18:34.127Z,15.93
2022-11-08T13:19:47.921Z,16.67
2022-11-08T13:20:50.221Z,16.48
2022-11-08T13:21:51.945Z,16.92
2022-11-08T13:23:00.897Z,16.00
2022-11-08T13:24:09.999Z,16.48
2022-11-08T13:25:23.792Z,15.65
2022-11-08T13:26:26.242Z,16.70
2022-11-08T13:27:36.916Z,15.88
2022-11-08T13:28:41.588Z,15.93
2022-11-08T13:29:43.158Z,15.63
2022-11-08T13:30:45.987Z,15.68
2022-11-08T13:32:43.605Z,15.95
2022-11-08T13:34:11.146Z,15.60
2022-11-08T13:35:30.264Z,14.75
2022-11-08T13:36:40.612Z,16.40
2022-11-08T13:38:00.249Z,15.68
2022-11-08T13:39:40.278Z,15.98
2022-11-08T13:41:06.907Z,15.45
2022-11-08T13:42:17.647Z,15.63
2022-11-08T13:43:29.644Z,16.25
2022-11-08T13:44:58.017Z,15.10
2022-11-08T13:46:27.373Z,14.70
2022-11-08T13:47:31.940Z,15.13
2022-11-08T13:48:36.096Z,15.32
2022-11-08T13:49:37.698Z,15.18
2022-11-08T13:50:46.622Z,14.52
2022-11-08T13:51:48.389Z,14.82
2022-11-08T13:53:25.199Z,14.45
2022-11-08T13:54:31.096Z,14.23
2022-11-08T13:55:41.946Z,14.02
2022-11-08T13:56:46.782Z,14.77
2022-11-08T13:57:57.470Z,13.95
2022-11-08T13:58:59.024Z,15.15
2022-11-08T14:00:00.678Z,14.55
2022-11-08T14:01:06.672Z,14.52
2022-11-08T14:02:32.181Z,14.00
2022-11-08T14:03:33.691Z,14.15
2022-11-08T14:04:40.239Z,14.35
2022-11-08T14:05:47.524Z,14.32
2022-11-08T14:07:23.929Z,13.73
2022-11-08T14:08:30.607Z,14.65
2022-11-08T14:09:43.267Z,14.75
2022-11-08T14:11:03.372Z,14.90
2022-11-08T14:12:07.554Z,15.60
2022-11-08T14:13:30.412Z,14.40
2022-11-08T14:14:38.058Z,15.57
2022-11-08T14:16:15.200Z,14.98
2022-11-08T14:17:48.845Z,15.20
2022-11-08T14:18:50.446Z,15.95
2022-11-08T14:19:52.910Z,16.80